createdAt,value
2018-09-09T00:00:21.297Z,72.17
2018-09-09T00:01:21.307Z,71.26
2018-09-09T00:02:21.275Z,71.26
2018-09-09T00:03:21.267Z,71.36
2018-09-09T00:04:21.253Z,70.65
2018-09-09T00:05:21.264Z,71.57
2018-09-09T00:06:21.232Z,72.58
2018-09-09T00:07:21.241Z,72.28
2018-09-09T00:08:21.211Z,72.69
2018-09-09T00:09:21.198Z,72.08
2018-09-09T00:10:21.187Z,72.38
2018-09-09T00:11:21.197Z,72.38
2018-09-09T00:12:21.164Z,71.47
2018-09-09T00:13:21.153Z,71.26
2018-09-09T00:14:21.163Z,71.97
2018-09-09T00:15:21.130Z,72.69
2018-09-09T00:16:21.119Z,72.08
2018-09-09T00:17:21.123Z,72.17
2018-09-09T00:18:21.099Z,72.38
2018-09-09T00:19:21.086Z,72.21
2018-09-09T00:20:21.075Z,72.41
2018-09-09T00:21:21.087Z,72.21
2018-09-09T00:22:21.053Z,72.11
2018-09-09T00:23:21.042Z,72.31
2018-09-09T00:24:21.030Z,72.28
2018-09-09T00:25:21.019Z,72.31
2018-09-09T00:26:21.030Z,72.31
2018-09-09T00:27:20.997Z,72.72
2018-09-09T00:28:20.986Z,72.62
2018-09-09T00:29:20.998Z,72.92
2018-09-09T00:30:20.986Z,73.13
2018-09-09T00:31:20.955Z,72.82
2018-09-09T00:32:20.941Z,72.62
2018-09-09T00:33:20.960Z,72.21
2018-09-09T00:34:20.919Z,72.52
2018-09-09T00:35:20.909Z,71.91
2018-09-09T00:36:20.896Z,72.11
2018-09-09T00:37:20.885Z,72.92
2018-09-09T00:38:20.896Z,72.72
2018-09-09T00:39:20.864Z,73.13
2018-09-09T00:40:20.873Z,73.02
2018-09-09T00:41:20.841Z,72.41
2018-09-09T00:42:20.829Z,72.52
2018-09-09T00:43:20.819Z,72.82
2018-09-09T00:44:20.810Z,72.62
2018-09-09T00:45:20.822Z,72.82
2018-09-09T00:46:20.787Z,72.92
2018-09-09T00:47:20.774Z,73.43
2018-09-09T00:48:20.783Z,72.52
2018-09-09T00:49:20.752Z,73.33
2018-09-09T00:50:20.741Z,73.57
2018-09-09T00:51:20.731Z,74.76
2018-09-09T00:52:20.718Z,75.46
2018-09-09T00:53:20.730Z,75.67
2018-09-09T00:54:20.697Z,74.89
2018-09-09T00:55:20.687Z,74.58
2018-09-09T00:56:20.673Z,74.69
2018-09-09T00:57:20.685Z,75.60
2018-09-09T00:58:20.651Z,75.60
2018-09-09T00:59:20.642Z,76.11
2018-09-09T01:00:20.629Z,76.11
2018-09-09T01:01:20.619Z,76.31
2018-09-09T01:02:20.629Z,76.62
2018-09-09T01:03:20.596Z,75.91
2018-09-09T01:04:20.587Z,74.58
2018-09-09T01:05:20.574Z,74.28
2018-09-09T01:06:20.562Z,74.69
2018-09-09T01:07:20.572Z,75.50
2018-09-09T01:08:20.540Z,76.72
2018-09-09T01:09:20.528Z,76.11
2018-09-09T01:10:20.540Z,76.25
2018-09-09T01:11:20.505Z,75.50
2018-09-09T01:12:20.499Z,75.54
2018-09-09T01:13:20.514Z,75.54
2018-09-09T01:14:20.472Z,75.70
2018-09-09T01:15:20.462Z,76.45
2018-09-09T01:16:20.450Z,77.06
2018-09-09T01:17:20.440Z,77.47
2018-09-09T01:18:20.451Z,76.35
2018-09-09T01:19:20.419Z,75.43
2018-09-09T01:20:20.406Z,75.50
2018-09-09T01:21:20.396Z,75.54
2018-09-09T01:22:20.397Z,75.23
2018-09-09T01:23:20.393Z,75.43
2018-09-09T01:24:20.382Z,75.54
2018-09-09T01:25:20.352Z,75.54
2018-09-09T01:26:20.360Z,75.95
2018-09-09T01:27:20.328Z,75.54
2018-09-09T01:28:20.320Z,76.25
2018-09-09T01:29:20.310Z,76.76
2018-09-09T01:30:20.302Z,77.17
2018-09-09T01:31:20.296Z,77.74
2018-09-09T01:32:20.294Z,78.28
2018-09-09T01:33:20.261Z,78.39
2018-09-09T01:34:20.255Z,77.78
2018-09-09T01:35:20.259Z,77.67
2018-09-09T01:36:20.231Z,77.67
2018-09-09T01:37:20.216Z,77.26
2018-09-09T01:38:20.205Z,77.06
2018-09-09T01:39:20.223Z,77.06
2018-09-09T01:40:20.184Z,77.26
2018-09-09T01:41:20.194Z,76.96
2018-09-09T01:42:20.160Z,76.65
2018-09-09T01:43:20.154Z,76.56
2018-09-09T01:44:20.139Z,76.86
2018-09-09T01:45:20.131Z,77.06
2018-09-09T01:46:20.145Z,76.65
2018-09-09T01:47:20.105Z,78.19
2018-09-09T01:48:20.117Z,78.08
2018-09-09T01:49:20.088Z,78.28
2018-09-09T01:50:20.071Z,77.67
2018-09-09T01:51:20.067Z,77.87
2018-09-09T01:52:20.070Z,77.78
2018-09-09T01:53:20.039Z,77.78
2018-09-09T01:54:20.026Z,77.37
2018-09-09T01:55:20.016Z,76.96
2018-09-09T01:56:20.005Z,77.51
2018-09-09T01:57:20.024Z,76.76
2018-09-09T01:58:19.986Z,76.45
2018-09-09T01:59:19.974Z,76.25
2018-09-09T02:00:19.964Z,76.25
2018-09-09T02:01:19.949Z,76.69
2018-09-09T02:02:19.958Z,77.06
2018-09-09T02:03:19.927Z,77.47
2018-09-09T02:04:19.936Z,76.35
2018-09-09T02:05:19.905Z,76.35
2018-09-09T02:06:19.893Z,76.15
2018-09-09T02:07:19.887Z,76.35
2018-09-09T02:08:19.870Z,76.35
2018-09-09T02:09:19.886Z,76.45
2018-09-09T02:10:19.849Z,76.04
2018-09-09T02:11:19.837Z,76.45
2018-09-09T02:12:19.826Z,76.56
2018-09-09T02:13:19.836Z,76.86
2018-09-09T02:14:19.848Z,77.06
2018-09-09T02:15:19.792Z,77.17
2018-09-09T02:16:19.782Z,77.06
2018-09-09T02:17:19.770Z,77.47
2018-09-09T02:18:19.759Z,77.57
2018-09-09T02:19:19.775Z,76.96
2018-09-09T02:20:19.739Z,77.67
2018-09-09T02:21:19.731Z,77.98
2018-09-09T02:22:19.715Z,77.71
2018-09-09T02:23:19.703Z,77.67
2018-09-09T02:24:19.714Z,77.67
2018-09-09T02:25:19.680Z,77.71
2018-09-09T02:26:19.674Z,77.51
2018-09-09T02:27:19.664Z,77.06
2018-09-09T02:28:19.652Z,77.47
2018-09-09T02:29:19.657Z,77.30
2018-09-09T02:30:19.648Z,77.71
2018-09-09T02:31:19.614Z,77.91
2018-09-09T02:32:19.605Z,78.12
2018-09-09T02:33:19.594Z,78.42
2018-09-09T02:34:19.602Z,78.32
2018-09-09T02:35:19.569Z,77.61
2018-09-09T02:36:19.559Z,77.71
2018-09-09T02:37:19.548Z,77.71
2018-09-09T02:38:19.537Z,77.81
2018-09-09T02:39:19.561Z,77.81
2018-09-09T02:40:19.515Z,77.71
2018-09-09T02:41:19.503Z,77.71
2018-09-09T02:42:19.497Z,76.90
2018-09-09T02:43:19.481Z,76.59
2018-09-09T02:44:19.493Z,77.00
2018-09-09T02:45:19.459Z,76.69
2018-09-09T02:46:19.469Z,76.39
2018-09-09T02:47:19.439Z,76.39
2018-09-09T02:48:19.426Z,76.35
2018-09-09T02:49:19.422Z,75.74
2018-09-09T02:50:19.404Z,76.18
2018-09-09T02:51:19.414Z,76.49
2018-09-09T02:52:19.382Z,76.18
2018-09-09T02:53:19.370Z,76.28
2018-09-09T02:54:19.380Z,76.49
2018-09-09T02:55:19.375Z,75.88
2018-09-09T02:56:19.335Z,75.74
2018-09-09T02:57:19.329Z,76.04
2018-09-09T02:58:19.315Z,75.98
2018-09-09T02:59:19.303Z,75.74
2018-09-09T03:00:19.325Z,75.74
2018-09-09T03:01:19.281Z,74.82
2018-09-09T03:02:19.268Z,75.74
2018-09-09T03:03:19.259Z,77.98
2018-09-09T03:04:19.250Z,76.56
2018-09-09T03:05:19.269Z,75.64
2018-09-09T03:06:19.228Z,76.04
2018-09-09T03:07:19.218Z,75.84
2018-09-09T03:08:19.204Z,75.67
2018-09-09T03:09:19.194Z,75.84
2018-09-09T03:10:19.201Z,76.96
2018-09-09T03:11:19.194Z,77.57
2018-09-09T03:12:19.156Z,77.61
2018-09-09T03:13:19.145Z,77.71
2018-09-09T03:14:19.134Z,78.08
2018-09-09T03:15:19.144Z,77.81
2018-09-09T03:16:19.149Z,77.51
2018-09-09T03:17:19.101Z,77.10
2018-09-09T03:18:19.090Z,76.69
2018-09-09T03:19:19.079Z,76.79
2018-09-09T03:20:19.069Z,76.69
2018-09-09T03:21:19.082Z,77.20
2018-09-09T03:22:19.045Z,77.71
2018-09-09T03:23:19.035Z,77.81
2018-09-09T03:24:19.023Z,77.75
2018-09-09T03:25:19.015Z,78.32
2018-09-09T03:26:19.023Z,78.22
2018-09-09T03:27:18.990Z,77.71
2018-09-09T03:28:18.987Z,77.00
2018-09-09T03:29:18.968Z,76.79
2018-09-09T03:30:18.958Z,76.28
2018-09-09T03:31:18.966Z,76.28
2018-09-09T03:32:18.941Z,76.59
2018-09-09T03:33:18.925Z,76.49
2018-09-09T03:34:18.912Z,76.39
2018-09-09T03:35:18.901Z,76.35
2018-09-09T03:36:18.910Z,76.39
2018-09-09T03:37:18.878Z,76.79
2018-09-09T03:38:18.870Z,76.28
2018-09-09T03:39:18.882Z,76.39
2018-09-09T03:40:18.850Z,77.10
2018-09-09T03:41:18.857Z,77.91
2018-09-09T03:42:18.828Z,78.22
2018-09-09T03:43:18.815Z,78.63
2018-09-09T03:44:18.801Z,79.03
2018-09-09T03:45:18.792Z,79.24
2018-09-09T03:46:18.805Z,78.32
2018-09-09T03:47:18.767Z,77.64
2018-09-09T03:48:18.757Z,77.61
2018-09-09T03:49:18.744Z,77.81
2018-09-09T03:50:18.755Z,77.71
2018-09-09T03:51:18.759Z,78.36
2018-09-09T03:52:18.718Z,77.61
2018-09-09T03:53:18.701Z,77.03
2018-09-09T03:54:18.694Z,77.75
2018-09-09T03:55:18.677Z,77.75
2018-09-09T03:56:18.701Z,77.95
2018-09-09T03:57:18.656Z,77.55
2018-09-09T03:58:18.648Z,77.75
2018-09-09T03:59:18.634Z,77.75
2018-09-09T04:00:18.623Z,76.83
2018-09-09T04:01:18.634Z,77.44
2018-09-09T04:02:18.601Z,77.75
2018-09-09T04:03:18.590Z,77.55
2018-09-09T04:04:18.597Z,77.64
2018-09-09T04:05:18.566Z,77.64
2018-09-09T04:06:18.562Z,78.16
2018-09-09T04:07:18.545Z,78.87
2018-09-09T04:08:18.544Z,78.66
2018-09-09T04:09:18.547Z,78.87
2018-09-09T04:10:18.556Z,78.56
2018-09-09T04:11:18.506Z,78.70
2018-09-09T04:12:18.489Z,78.50
2018-09-09T04:13:18.481Z,78.39
2018-09-09T04:14:18.469Z,78.70
2018-09-09T04:15:18.480Z,77.89
2018-09-09T04:16:18.446Z,77.89
2018-09-09T04:17:18.437Z,78.36
2018-09-09T04:18:18.420Z,78.09
2018-09-09T04:19:18.416Z,78.70
2018-09-09T04:20:18.419Z,78.19
2018-09-09T04:21:18.413Z,78.80
2018-09-09T04:22:18.377Z,78.50
2018-09-09T04:23:18.366Z,77.89
2018-09-09T04:24:18.358Z,78.50
2018-09-09T04:25:18.342Z,78.39
2018-09-09T04:26:18.356Z,78.30
2018-09-09T04:27:18.320Z,79.21
2018-09-09T04:28:18.310Z,79.21
2018-09-09T04:29:18.298Z,79.32
2018-09-09T04:30:18.287Z,78.80
2018-09-09T04:31:18.296Z,79.00
2018-09-09T04:32:18.266Z,79.11
2018-09-09T04:33:18.255Z,78.80
2018-09-09T04:34:18.243Z,78.30
2018-09-09T04:35:18.233Z,79.11
2018-09-09T04:36:18.241Z,79.17
2018-09-09T04:37:18.246Z,78.80
2018-09-09T04:38:18.198Z,78.77
2018-09-09T04:39:18.191Z,78.36
2018-09-09T04:40:18.176Z,77.95
2018-09-09T04:41:18.170Z,78.80
2018-09-09T04:42:18.180Z,78.26
2018-09-09T04:43:18.143Z,77.55
2018-09-09T04:44:18.136Z,77.95
2018-09-09T04:45:18.120Z,78.16
2018-09-09T04:46:18.125Z,77.55
2018-09-09T04:47:18.129Z,77.95
2018-09-09T04:48:18.093Z,77.34
2018-09-09T04:49:18.081Z,76.62
2018-09-09T04:50:18.068Z,77.03
2018-09-09T04:51:18.056Z,76.42
2018-09-09T04:52:18.064Z,76.42
2018-09-09T04:53:18.037Z,75.92
2018-09-09T04:54:18.025Z,75.71
2018-09-09T04:55:18.032Z,75.37
2018-09-09T04:56:17.998Z,75.67
2018-09-09T04:57:17.988Z,75.37
2018-09-09T04:58:17.993Z,75.67
2018-09-09T04:59:17.990Z,75.67
2018-09-09T05:00:17.964Z,75.47
2018-09-09T05:01:17.956Z,75.71
2018-09-09T05:02:17.930Z,75.67
2018-09-09T05:03:17.919Z,75.67
2018-09-09T05:04:17.946Z,75.88
2018-09-09T05:05:17.897Z,75.16
2018-09-09T05:06:17.886Z,75.57
2018-09-09T05:07:17.876Z,75.57
2018-09-09T05:08:17.866Z,75.57
2018-09-09T05:09:17.898Z,75.67
2018-09-09T05:10:17.841Z,75.47
2018-09-09T05:11:17.829Z,74.65
2018-09-09T05:12:17.819Z,74.65
2018-09-09T05:13:17.808Z,74.65
2018-09-09T05:14:17.826Z,74.15
2018-09-09T05:15:17.789Z,74.55
2018-09-09T05:16:17.773Z,74.25
2018-09-09T05:17:17.762Z,74.35
2018-09-09T05:18:17.751Z,74.04
2018-09-09T05:19:17.764Z,74.55
2018-09-09T05:20:17.763Z,74.65
2018-09-09T05:21:17.718Z,74.76
2018-09-09T05:22:17.706Z,73.80
2018-09-09T05:23:17.698Z,73.33
2018-09-09T05:24:17.686Z,73.60
2018-09-09T05:25:17.717Z,74.41
2018-09-09T05:26:17.679Z,73.30
2018-09-09T05:27:17.651Z,73.60
2018-09-09T05:28:17.647Z,73.30
2018-09-09T05:29:17.630Z,74.32
2018-09-09T05:30:17.653Z,73.40
2018-09-09T05:31:17.605Z,73.71
2018-09-09T05:32:17.595Z,73.80
2018-09-09T05:33:17.587Z,73.40
2018-09-09T05:34:17.576Z,73.80
2018-09-09T05:35:17.587Z,73.80
2018-09-09T05:36:17.555Z,73.40
2018-09-09T05:37:17.544Z,73.40
2018-09-09T05:38:17.531Z,73.71
2018-09-09T05:39:17.516Z,73.40
2018-09-09T05:40:17.527Z,73.71
2018-09-09T05:41:17.533Z,73.40
2018-09-09T05:42:17.544Z,74.41
2018-09-09T05:43:17.478Z,73.71
2018-09-09T05:44:17.463Z,73.60
2018-09-09T05:45:17.450Z,73.91
2018-09-09T05:46:17.464Z,73.87
2018-09-09T05:47:17.451Z,74.69
2018-09-09T05:48:17.417Z,75.60
2018-09-09T05:49:17.406Z,75.54
2018-09-09T05:50:17.416Z,75.40
2018-09-09T05:51:17.413Z,73.91
2018-09-09T05:52:17.372Z,74.08
2018-09-09T05:53:17.363Z,74.18
2018-09-09T05:54:17.351Z,74.08
2018-09-09T05:55:17.339Z,74.08
2018-09-09T05:56:17.348Z,73.97
2018-09-09T05:57:17.317Z,74.08
2018-09-09T05:58:17.331Z,73.47
2018-09-09T05:59:17.295Z,72.82
2018-09-09T06:00:17.288Z,73.06
2018-09-09T06:01:17.273Z,73.06
2018-09-09T06:02:17.260Z,73.02
2018-09-09T06:03:17.368Z,72.82
2018-09-09T06:04:17.271Z,72.89
2018-09-09T06:05:17.227Z,72.01
2018-09-09T06:06:17.215Z,72.08
2018-09-09T06:07:17.206Z,71.97
2018-09-09T06:08:17.228Z,71.97
2018-09-09T06:09:17.182Z,71.77
2018-09-09T06:10:17.176Z,71.87
2018-09-09T06:11:17.161Z,72.08
2018-09-09T06:12:17.150Z,70.72
2018-09-09T06:13:17.160Z,71.12
2018-09-09T06:14:17.129Z,71.36
2018-09-09T06:15:17.120Z,71.43
2018-09-09T06:16:17.130Z,72.28
2018-09-09T06:17:17.096Z,71.64
2018-09-09T06:18:17.087Z,71.33
2018-09-09T06:19:17.071Z,71.43
2018-09-09T06:20:17.060Z,72.34
2018-09-09T06:21:17.074Z,72.75
2018-09-09T06:22:17.272Z,72.52
2018-09-09T06:23:17.042Z,72.21
2018-09-09T06:24:17.015Z,72.21
2018-09-09T06:25:17.005Z,72.82
2018-09-09T06:26:16.992Z,73.29
2018-09-09T06:27:17.007Z,72.11
2018-09-09T06:28:17.050Z,72.58
2018-09-09T06:29:16.965Z,73.39
2018-09-09T06:30:16.948Z,72.17
2018-09-09T06:31:16.937Z,70.11
2018-09-09T06:32:16.956Z,69.64
2018-09-09T06:33:16.918Z,71.53
2018-09-09T06:34:16.904Z,72.96
2018-09-09T06:35:16.931Z,71.73
2018-09-09T06:36:16.883Z,73.06
2018-09-09T06:37:16.872Z,72.85
2018-09-09T06:38:16.862Z,72.04
2018-09-09T06:39:16.849Z,72.14
2018-09-09T06:40:16.859Z,71.44
2018-09-09T06:41:16.827Z,71.40
2018-09-09T06:42:16.816Z,70.89
2018-09-09T06:43:16.805Z,70.28
2018-09-09T06:44:16.819Z,73.02
2018-09-09T06:45:16.793Z,71.91
2018-09-09T06:46:16.776Z,72.21
2018-09-09T06:47:16.781Z,73.22
2018-09-09T06:48:16.751Z,73.22
2018-09-09T06:49:16.739Z,73.83
2018-09-09T06:50:16.728Z,74.51
2018-09-09T06:51:16.800Z,73.49
2018-09-09T06:52:16.731Z,72.68
2018-09-09T06:53:16.719Z,72.38
2018-09-09T06:54:16.687Z,72.68
2018-09-09T06:55:16.674Z,69.00
2018-09-09T06:56:16.660Z,69.51
2018-09-09T06:57:16.672Z,69.00
2018-09-09T06:58:16.642Z,66.74
2018-09-09T06:59:16.648Z,66.94
2018-09-09T07:00:16.620Z,68.56
2018-09-09T07:01:16.605Z,68.46
2018-09-09T07:02:16.645Z,66.71
2018-09-09T07:03:16.605Z,66.74
2018-09-09T07:04:16.574Z,66.41
2018-09-09T07:05:16.565Z,67.93
2018-09-09T07:06:16.551Z,68.36
2018-09-09T07:07:16.546Z,67.96
2018-09-09T07:08:16.549Z,68.46
2018-09-09T07:09:16.517Z,68.63
2018-09-09T07:10:16.537Z,69.04
2018-09-09T07:11:16.662Z,69.71
2018-09-09T07:12:16.488Z,68.37
2018-09-09T07:13:16.473Z,65.17
2018-09-09T07:14:16.460Z,62.34
2018-09-09T07:15:16.476Z,61.33
2018-09-09T07:16:16.444Z,61.57
2018-09-09T07:17:16.433Z,63.19
2018-09-09T07:18:16.443Z,60.33
2018-09-09T07:19:16.530Z,60.41
2018-09-09T07:20:16.420Z,59.73
2018-09-09T07:21:16.384Z,60.51
2018-09-09T07:22:16.376Z,61.85
2018-09-09T07:23:16.366Z,63.96
2018-09-09T07:24:16.349Z,60.94
2018-09-09T07:25:16.360Z,61.85
2018-09-09T07:26:16.329Z,64.20
2018-09-09T07:27:16.322Z,63.36
2018-09-09T07:28:16.306Z,61.95
2018-09-09T07:29:16.299Z,60.21
2018-09-09T07:30:16.313Z,61.14
2018-09-09T07:31:16.455Z,60.44
2018-09-09T07:32:16.267Z,60.24
2018-09-09T07:33:16.250Z,60.13
2018-09-09T07:34:16.303Z,58.26
2018-09-09T07:35:16.255Z,57.83
2018-09-09T07:36:16.222Z,55.91
2018-09-09T07:37:16.210Z,56.16
2018-09-09T07:38:16.219Z,54.96
2018-09-09T07:39:16.184Z,55.23
2018-09-09T07:40:16.197Z,56.11
2018-09-09T07:41:16.166Z,57.09
2018-09-09T07:42:16.150Z,55.86
2018-09-09T07:43:16.140Z,53.22
2018-09-09T07:44:16.138Z,53.09
2018-09-09T07:45:16.140Z,51.49
2018-09-09T07:46:17.647Z,50.29
2018-09-09T07:47:16.096Z,52.09
2018-09-09T07:48:16.091Z,50.99
2018-09-09T07:49:16.104Z,50.21
2018-09-09T07:50:16.063Z,51.92
2018-09-09T07:51:16.053Z,53.50
2018-09-09T07:52:16.070Z,55.28
2018-09-09T07:53:16.055Z,52.44
2018-09-09T07:54:16.028Z,50.01
2018-09-09T07:55:16.012Z,49.81
2018-09-09T07:56:16.018Z,50.29
2018-09-09T07:57:15.987Z,50.29
2018-09-09T07:58:15.976Z,53.42
2018-09-09T07:59:15.970Z,52.72
2018-09-09T08:00:15.998Z,52.09
2018-09-09T08:01:15.965Z,50.46
2018-09-09T08:02:15.934Z,50.39
2018-09-09T08:03:15.922Z,51.69
2018-09-09T08:04:15.914Z,50.81
2018-09-09T08:05:15.906Z,52.12
2018-09-09T08:06:15.928Z,51.84
2018-09-09T08:07:15.885Z,51.84
2018-09-09T08:08:15.869Z,52.97
2018-09-09T08:09:15.866Z,53.07
2018-09-09T08:10:15.855Z,52.67
2018-09-09T08:11:15.868Z,53.80
2018-09-09T08:12:15.899Z,54.20
2018-09-09T08:13:15.819Z,51.89
2018-09-09T08:14:15.803Z,53.59
2018-09-09T08:15:15.793Z,52.51
2018-09-09T08:16:15.837Z,53.82
2018-09-09T08:17:15.769Z,53.42
2018-09-09T08:18:15.790Z,54.72
2018-09-09T08:19:15.751Z,54.83
2018-09-09T08:20:15.741Z,52.92
2018-09-09T08:21:15.753Z,53.55
2018-09-09T08:22:15.720Z,53.92
2018-09-09T08:23:15.702Z,55.43
2018-09-09T08:24:15.693Z,53.32
2018-09-09T08:25:15.684Z,52.32
2018-09-09T08:26:15.698Z,53.42
2018-09-09T08:27:15.660Z,55.23
2018-09-09T08:28:15.647Z,56.23
2018-09-09T08:29:15.641Z,55.10
2018-09-09T08:30:15.625Z,53.00
2018-09-09T08:31:15.641Z,52.80
2018-09-09T08:32:15.604Z,53.59
2018-09-09T08:33:15.654Z,54.47
2018-09-09T08:34:15.583Z,55.68
2018-09-09T08:35:15.575Z,55.18
2018-09-09T08:36:15.571Z,53.55
2018-09-09T08:37:15.570Z,53.55
2018-09-09T08:38:15.536Z,50.84
2018-09-09T08:39:15.525Z,52.42
2018-09-09T08:40:15.536Z,51.92
2018-09-09T08:41:15.508Z,51.89
2018-09-09T08:42:15.492Z,51.39
2018-09-09T08:43:15.483Z,53.37
2018-09-09T08:44:15.498Z,53.17
2018-09-09T08:45:15.460Z,51.74
2018-09-09T08:46:15.467Z,52.92
2018-09-09T08:47:15.464Z,51.39
2018-09-09T08:48:15.432Z,49.87
2018-09-09T08:49:15.417Z,50.45
2018-09-09T08:50:15.429Z,47.83
2018-09-09T08:51:15.395Z,45.63
2018-09-09T08:52:15.402Z,47.63
2018-09-09T08:53:15.372Z,47.33
2018-09-09T08:54:15.360Z,46.50
2018-09-09T08:55:15.363Z,46.62
2018-09-09T08:56:15.372Z,47.85
2018-09-09T08:57:15.328Z,47.19
2018-09-09T08:58:15.321Z,48.60
2018-09-09T08:59:15.557Z,48.72
2018-09-09T09:00:15.295Z,49.22
2018-09-09T09:01:15.319Z,48.02
2018-09-09T09:02:15.277Z,48.02
2018-09-09T09:03:15.263Z,46.09
2018-09-09T09:04:15.256Z,48.47
2018-09-09T09:05:15.242Z,47.63
2018-09-09T09:06:15.255Z,47.90
2018-09-09T09:07:15.261Z,45.53
2018-09-09T09:08:15.253Z,47.40
2018-09-09T09:09:15.202Z,47.68
2018-09-09T09:10:15.189Z,46.80
2018-09-09T09:11:15.208Z,45.21
2018-09-09T09:12:15.178Z,48.88
2018-09-09T09:13:15.183Z,48.75
2018-09-09T09:14:15.149Z,46.73
2018-09-09T09:15:15.137Z,47.53
2018-09-09T09:16:15.122Z,45.34
2018-09-09T09:17:15.113Z,43.95
2018-09-09T09:18:15.133Z,45.26
2018-09-09T09:19:15.092Z,45.86
2018-09-09T09:20:15.078Z,46.84
2018-09-09T09:21:15.071Z,44.35
2018-09-09T09:22:15.064Z,43.13
2018-09-09T09:23:15.092Z,45.64
2018-09-09T09:24:15.034Z,43.75
2018-09-09T09:25:15.022Z,45.32
2018-09-09T09:26:15.041Z,45.70
2018-09-09T09:27:15.033Z,45.18
2018-09-09T09:28:14.991Z,43.46
2018-09-09T09:29:14.983Z,43.07
2018-09-09T09:30:14.977Z,40.78
2018-09-09T09:31:14.958Z,42.15
2018-09-09T09:32:14.982Z,41.36
2018-09-09T09:33:14.937Z,42.15
2018-09-09T09:34:14.926Z,43.52
2018-09-09T09:35:14.918Z,40.84
2018-09-09T09:36:14.906Z,43.44
2018-09-09T09:37:14.916Z,43.54
2018-09-09T09:38:14.882Z,42.63
2018-09-09T09:39:15.028Z,40.96
2018-09-09T09:40:14.861Z,42.15
2018-09-09T09:41:14.856Z,42.25
2018-09-09T09:42:14.867Z,42.57
2018-09-09T09:43:14.829Z,42.59
2018-09-09T09:44:14.841Z,42.71
2018-09-09T09:45:14.823Z,42.31
2018-09-09T09:46:14.802Z,42.21
2018-09-09T09:47:14.787Z,43.73
2018-09-09T09:48:14.775Z,44.62
2018-09-09T09:49:14.787Z,44.94
2018-09-09T09:50:14.758Z,45.64
2018-09-09T09:51:14.743Z,48.13
2018-09-09T09:52:14.733Z,45.44
2018-09-09T09:53:14.799Z,46.96
2018-09-09T09:54:14.737Z,43.67
2018-09-09T09:55:14.753Z,45.68
2018-09-09T09:56:14.697Z,45.10
2018-09-09T09:57:14.698Z,45.83
2018-09-09T09:58:14.667Z,45.43
2018-09-09T09:59:14.657Z,47.25
2018-09-09T10:00:14.647Z,46.73
2018-09-09T10:01:14.636Z,45.10
2018-09-09T10:02:14.648Z,44.31
2018-09-09T10:03:14.612Z,43.93
2018-09-09T10:04:14.602Z,43.93
2018-09-09T10:05:14.591Z,43.69
2018-09-09T10:06:14.579Z,42.18
2018-09-09T10:07:14.594Z,42.55
2018-09-09T10:08:14.558Z,43.03
2018-09-09T10:09:14.578Z,43.01
2018-09-09T10:10:14.537Z,42.03
2018-09-09T10:11:14.525Z,41.63
2018-09-09T10:12:14.519Z,41.63
2018-09-09T10:13:14.506Z,42.53
2018-09-09T10:14:14.514Z,42.01
2018-09-09T10:15:14.498Z,41.03
2018-09-09T10:16:14.481Z,42.95
2018-09-09T10:17:14.465Z,42.37
2018-09-09T10:18:14.449Z,42.67
2018-09-09T10:19:14.464Z,42.99
2018-09-09T10:20:14.450Z,43.59
2018-09-09T10:21:14.416Z,43.71
2018-09-09T10:22:14.426Z,43.91
2018-09-09T10:23:14.400Z,43.89
2018-09-09T10:24:14.383Z,43.39
2018-09-09T10:25:14.379Z,43.69
2018-09-09T10:26:14.362Z,43.79
2018-09-09T10:27:14.375Z,44.17
2018-09-09T10:28:14.345Z,43.27
2018-09-09T10:29:14.334Z,42.95
2018-09-09T10:30:14.323Z,42.33
2018-09-09T10:31:14.309Z,42.21
2018-09-09T10:32:14.318Z,41.71
2018-09-09T10:33:14.286Z,40.92
2018-09-09T10:34:14.275Z,43.60
2018-09-09T10:35:14.264Z,43.88
2018-09-09T10:36:14.254Z,42.67
2018-09-09T10:37:14.266Z,40.48
2018-09-09T10:38:14.231Z,45.36
2018-09-09T10:39:14.221Z,44.44
2018-09-09T10:40:14.214Z,43.02
2018-09-09T10:41:14.230Z,42.41
2018-09-09T10:42:14.192Z,43.18
2018-09-09T10:43:14.179Z,41.20
2018-09-09T10:44:14.171Z,41.09
2018-09-09T10:45:14.157Z,41.12
2018-09-09T10:46:14.292Z,42.09
2018-09-09T10:47:14.138Z,41.42
2018-09-09T10:48:14.126Z,42.41
2018-09-09T10:49:14.113Z,41.02
2018-09-09T10:50:14.125Z,40.62
2018-09-09T10:51:14.092Z,40.62
2018-09-09T10:52:14.083Z,42.63
2018-09-09T10:53:14.150Z,41.42
2018-09-09T10:54:14.089Z,38.77
2018-09-09T10:55:14.071Z,41.58
2018-09-09T10:56:14.039Z,41.97
2018-09-09T10:57:14.029Z,43.57
2018-09-09T10:58:14.016Z,42.07
2018-09-09T10:59:14.011Z,43.44
2018-09-09T11:00:14.017Z,42.85
2018-09-09T11:01:14.011Z,40.54
2018-09-09T11:02:13.975Z,41.71
2018-09-09T11:03:13.964Z,41.42
2018-09-09T11:04:13.954Z,41.30
2018-09-09T11:05:13.947Z,37.82
2018-09-09T11:06:13.952Z,39.11
2018-09-09T11:07:13.920Z,40.58
2018-09-09T11:08:13.910Z,40.58
2018-09-09T11:09:13.898Z,40.28
2018-09-09T11:10:13.893Z,40.19
2018-09-09T11:11:13.908Z,39.59
2018-09-09T11:12:13.870Z,38.52
2018-09-09T11:13:13.855Z,40.20
2018-09-09T11:14:13.849Z,40.42
2018-09-09T11:15:13.833Z,40.03
2018-09-09T11:16:13.846Z,40.22
2018-09-09T11:17:13.821Z,41.34
2018-09-09T11:18:13.826Z,41.53
2018-09-09T11:19:13.795Z,40.84
2018-09-09T11:20:13.805Z,40.74
2018-09-09T11:21:13.799Z,39.15
2018-09-09T11:22:13.776Z,41.25
2018-09-09T11:23:13.772Z,40.42
2018-09-09T11:24:13.768Z,40.92
2018-09-09T11:25:13.732Z,39.73
2018-09-09T11:26:13.741Z,41.52
2018-09-09T11:27:13.703Z,38.54
2018-09-09T11:28:13.697Z,39.15
2018-09-09T11:29:13.687Z,41.61
2018-09-09T11:30:13.672Z,41.39
2018-09-09T11:31:13.689Z,41.71
2018-09-09T11:32:13.657Z,42.09
2018-09-09T11:33:13.643Z,40.12
2018-09-09T11:34:13.629Z,41.31
2018-09-09T11:35:13.639Z,39.03
2018-09-09T11:36:13.653Z,40.33
2018-09-09T11:37:13.596Z,39.43
2018-09-09T11:38:13.583Z,41.02
2018-09-09T11:39:13.589Z,41.22
2018-09-09T11:40:13.586Z,38.56
2018-09-09T11:41:13.560Z,40.82
2018-09-09T11:42:13.542Z,39.83
2018-09-09T11:43:13.537Z,40.12
2018-09-09T11:44:13.521Z,39.81
2018-09-09T11:45:13.532Z,41.17
2018-09-09T11:46:13.508Z,38.09
2018-09-09T11:47:13.492Z,37.60
2018-09-09T11:48:13.513Z,38.52
2018-09-09T11:49:13.465Z,40.60
2018-09-09T11:50:13.481Z,40.20
2018-09-09T11:51:13.445Z,40.60
2018-09-09T11:52:13.442Z,38.43
2018-09-09T11:53:13.485Z,38.65
2018-09-09T11:54:13.421Z,40.14
2018-09-09T11:55:13.423Z,39.25
2018-09-09T11:56:13.395Z,41.24
2018-09-09T11:57:13.399Z,40.72
2018-09-09T11:58:13.369Z,40.62
2018-09-09T11:59:13.359Z,40.94
2018-09-09T12:00:13.374Z,40.52
2018-09-09T12:01:13.337Z,42.31
2018-09-09T12:02:13.338Z,39.83
2018-09-09T12:03:13.340Z,40.64
2018-09-09T12:04:13.307Z,40.05
2018-09-09T12:05:13.297Z,41.75
2018-09-09T12:06:13.308Z,40.58
2018-09-09T12:07:13.292Z,42.17
2018-09-09T12:08:13.262Z,41.17
2018-09-09T12:09:13.251Z,40.80
2018-09-09T12:10:13.245Z,43.68
2018-09-09T12:11:13.256Z,42.39
2018-09-09T12:12:13.224Z,41.89
2018-09-09T12:13:13.212Z,40.60
2018-09-09T12:14:13.197Z,41.12
2018-09-09T12:15:13.208Z,42.01
2018-09-09T12:16:13.180Z,43.21
2018-09-09T12:17:13.188Z,42.33
2018-09-09T12:18:13.154Z,41.53
2018-09-09T12:19:13.183Z,43.23
2018-09-09T12:20:13.153Z,42.93
2018-09-09T12:21:13.122Z,42.01
2018-09-09T12:22:13.110Z,43.21
2018-09-09T12:23:13.099Z,43.68
2018-09-09T12:24:13.093Z,43.57
2018-09-09T12:25:13.111Z,42.97
2018-09-09T12:26:13.073Z,42.07
2018-09-09T12:27:13.056Z,41.38
2018-09-09T12:28:13.051Z,41.38
2018-09-09T12:29:13.035Z,39.89
2018-09-09T12:30:13.145Z,40.18
2018-09-09T12:31:13.012Z,40.50
2018-09-09T12:32:13.063Z,42.07
2018-09-09T12:33:12.992Z,41.47
2018-09-09T12:34:12.980Z,41.09
2018-09-09T12:35:13.000Z,40.40
2018-09-09T12:36:12.959Z,41.38
2018-09-09T12:37:12.947Z,39.59
2018-09-09T12:38:12.939Z,38.49
2018-09-09T12:39:12.926Z,39.18
2018-09-09T12:40:12.940Z,41.25
2018-09-09T12:41:12.905Z,40.14
2018-09-09T12:42:12.894Z,38.45
2018-09-09T12:43:12.891Z,41.14
2018-09-09T12:44:12.893Z,40.74
2018-09-09T12:45:12.862Z,41.24
2018-09-09T12:46:12.852Z,39.95
2018-09-09T12:47:12.893Z,39.84
2018-09-09T12:48:12.829Z,39.05
2018-09-09T12:49:12.842Z,39.37
2018-09-09T12:50:12.830Z,38.28
2018-09-09T12:51:12.802Z,38.77
2018-09-09T12:52:12.810Z,39.57